createdAt,value
2018-12-29T00:01:34.073Z,32.10
2018-12-29T00:04:02.992Z,29.40
2018-12-29T00:06:34.111Z,30.37
2018-12-29T00:09:22.295Z,30.67
2018-12-29T00:12:10.401Z,31.63
2018-12-29T00:14:39.260Z,30.43
2018-12-29T00:17:08.158Z,28.77
2018-12-29T00:22:31.188Z,29.90
2018-12-29T00:25:19.334Z,29.80
2018-12-29T00:28:07.474Z,31.80
2018-12-29T00:30:36.460Z,30.73
2018-12-29T00:33:24.925Z,32.07
2018-12-29T00:35:53.824Z,28.80
2018-12-29T00:38:41.925Z,29.63
2018-12-29T00:41:10.761Z,28.67
2018-12-29T00:43:39.552Z,29.30
2018-12-29T00:46:08.616Z,28.97
2018-12-29T00:48:37.525Z,28.03
2018-12-29T00:54:13.613Z,26.03
2018-12-29T00:57:01.712Z,27.10
2018-12-29T00:59:30.569Z,27.10
2018-12-29T01:01:59.397Z,26.80
2018-12-29T01:04:47.539Z,26.20
2018-12-29T01:07:35.647Z,26.53
2018-12-29T01:10:04.973Z,25.40
2018-12-29T01:12:53.197Z,27.40
2018-12-29T01:15:41.328Z,24.40
2018-12-29T01:18:29.511Z,24.77
2018-12-29T01:21:17.641Z,25.93
2018-12-29T01:24:05.909Z,26.10
2018-12-29T01:26:34.777Z,25.77
2018-12-29T01:29:22.905Z,26.43
2018-12-29T01:32:11.052Z,26.70
2018-12-29T01:34:39.951Z,25.97
2018-12-29T01:37:28.089Z,26.87
2018-12-29T01:39:56.912Z,26.53
2018-12-29T01:42:45.040Z,26.80
2018-12-29T01:45:17.511Z,25.10
2018-12-29T01:47:44.538Z,25.60
2018-12-29T01:50:32.648Z,27.93
2018-12-29T01:53:20.784Z,26.33
2018-12-29T01:56:08.895Z,28.37
2018-12-29T01:58:57.067Z,26.93
2018-12-29T02:01:26.033Z,27.87
2018-12-29T02:03:55.007Z,27.73
2018-12-29T02:06:23.945Z,27.33
2018-12-29T02:08:52.868Z,28.77
2018-12-29T02:11:21.687Z,29.87
2018-12-29T02:14:10.171Z,28.63
2018-12-29T02:16:58.290Z,29.07
2018-12-29T02:19:27.191Z,28.70
2018-12-29T02:22:15.037Z,29.00
2018-12-29T02:24:43.949Z,31.07
2018-12-29T02:27:12.838Z,29.80
2018-12-29T02:29:41.734Z,29.33
2018-12-29T02:32:29.598Z,30.57
2018-12-29T02:34:58.564Z,31.90
2018-12-29T02:37:27.397Z,31.00
2018-12-29T02:40:15.511Z,30.53
2018-12-29T02:42:44.385Z,31.90
2018-12-29T02:45:13.245Z,30.93
2018-12-29T02:47:42.209Z,30.67
2018-12-29T02:50:11.127Z,30.80
2018-12-29T02:52:39.925Z,30.27
2018-12-29T02:55:27.865Z,29.87
2018-12-29T02:57:56.813Z,30.80
2018-12-29T03:00:25.646Z,33.50
2018-12-29T03:02:54.559Z,31.60
2018-12-29T03:05:23.675Z,32.07
2018-12-29T03:07:52.546Z,32.53
2018-12-29T03:10:40.460Z,33.10
2018-12-29T03:13:09.339Z,31.67
2018-12-29T03:15:41.717Z,34.07
2018-12-29T03:18:08.831Z,34.10
2018-12-29T03:20:37.720Z,31.60
2018-12-29T03:23:25.879Z,34.90
2018-12-29T03:25:54.695Z,32.07
2018-12-29T03:28:42.851Z,32.87
2018-12-29T03:31:30.981Z,30.47
2018-12-29T03:33:59.869Z,27.97
2018-12-29T03:36:47.981Z,27.97
2018-12-29T03:39:16.790Z,32.13
2018-12-29T03:41:45.606Z,30.03
2018-12-29T03:44:14.410Z,30.33
2018-12-29T03:46:43.320Z,30.13
2018-12-29T03:49:12.189Z,28.60
2018-12-29T03:51:41.125Z,28.37
2018-12-29T03:54:09.961Z,26.83
2018-12-29T03:59:33.652Z,25.63
2018-12-29T04:02:21.563Z,27.83
2018-12-29T04:04:50.409Z,28.30
2018-12-29T04:07:38.495Z,29.27
2018-12-29T04:10:29.264Z,26.47
2018-12-29T04:13:00.151Z,26.80
2018-12-29T04:15:28.941Z,25.43
2018-12-29T04:17:57.867Z,25.40
2018-12-29T04:20:26.667Z,24.57
2018-12-29T04:22:55.561Z,26.87
2018-12-29T04:25:43.662Z,25.53
2018-12-29T04:28:12.500Z,26.47
2018-12-29T04:31:00.413Z,25.77
2018-12-29T04:33:48.539Z,26.73
2018-12-29T04:36:17.375Z,24.77
2018-12-29T04:39:05.467Z,24.63
2018-12-29T04:41:53.572Z,25.23
2018-12-29T04:44:41.691Z,25.37
2018-12-29T04:47:29.845Z,26.63
2018-12-29T04:49:58.883Z,26.40
2018-12-29T04:52:47.010Z,26.93
2018-12-29T04:55:35.163Z,25.87
2018-12-29T04:58:04.046Z,24.37
2018-12-29T05:00:32.861Z,22.90
2018-12-29T05:03:20.993Z,24.17
2018-12-29T05:06:09.141Z,21.63
2018-12-29T05:08:57.244Z,23.03
2018-12-29T05:11:45.164Z,20.97
2018-12-29T05:14:14.031Z,22.23
2018-12-29T05:16:42.857Z,21.80
2018-12-29T05:19:30.958Z,20.67
2018-12-29T05:22:39.534Z,20.10
2018-12-29T05:25:08.534Z,20.17
2018-12-29T05:27:37.366Z,20.17
2018-12-29T05:30:46.140Z,20.73
2018-12-29T05:33:15.248Z,20.17
2018-12-29T05:36:03.382Z,21.27
2018-12-29T05:38:51.491Z,22.00
2018-12-29T05:44:27.411Z,22.23
2018-12-29T05:47:15.526Z,21.90
2018-12-29T05:49:44.452Z,21.83
2018-12-29T05:52:13.245Z,22.63
2018-12-29T05:54:42.164Z,23.50
2018-12-29T05:57:10.986Z,23.13
2018-12-29T05:59:58.895Z,23.90
2018-12-29T06:02:30.229Z,24.27
2018-12-29T06:05:18.085Z,24.50
2018-12-29T06:07:46.984Z,24.07
2018-12-29T06:10:15.875Z,24.97
2018-12-29T06:13:04.041Z,25.57
2018-12-29T06:15:32.859Z,25.83
2018-12-29T06:18:01.743Z,24.67
2018-12-29T06:20:30.625Z,25.10
2018-12-29T06:23:18.735Z,26.93
2018-12-29T06:25:50.096Z,25.13
2018-12-29T06:28:18.911Z,26.33
2018-12-29T06:31:07.136Z,25.07
2018-12-29T06:33:35.955Z,26.53
2018-12-29T06:36:04.815Z,28.10
2018-12-29T06:38:52.933Z,27.37
2018-12-29T06:41:41.043Z,27.77
2018-12-29T06:44:49.618Z,28.13
2018-12-29T06:47:18.524Z,29.00
2018-12-29T06:49:47.322Z,27.67
2018-12-29T06:52:35.449Z,27.63
2018-12-29T06:55:04.355Z,27.27
2018-12-29T06:57:33.226Z,26.63
2018-12-29T07:03:09.319Z,27.17
2018-12-29T07:05:38.143Z,27.03
2018-12-29T07:08:26.298Z,27.73
2018-12-29T07:11:14.390Z,27.43
2018-12-29T07:16:42.221Z,30.93
2018-12-29T07:19:08.577Z,30.13
2018-12-29T07:21:37.411Z,30.37
2018-12-29T07:24:06.267Z,29.53
2018-12-29T07:26:35.341Z,31.27
2018-12-29T07:29:04.282Z,31.60
2018-12-29T07:31:33.179Z,30.40
2018-12-29T07:34:02.085Z,30.30
2018-12-29T07:36:31.056Z,30.40
2018-12-29T07:38:59.971Z,29.70
2018-12-29T07:41:29.099Z,32.40
2018-12-29T07:44:17.196Z,30.70
2018-12-29T07:46:49.578Z,31.47
2018-12-29T07:49:16.621Z,32.73
2018-12-29T07:51:45.528Z,30.83
2018-12-29T07:54:14.459Z,31.60
2018-12-29T07:57:02.567Z,31.33
2018-12-29T07:59:50.443Z,31.60
2018-12-29T08:02:19.349Z,30.70
2018-12-29T08:04:48.294Z,30.27
2018-12-29T08:07:17.211Z,28.57
2018-12-29T08:09:46.070Z,29.17
2018-12-29T08:12:14.932Z,29.20
2018-12-29T08:14:43.861Z,26.90
2018-12-29T08:17:12.740Z,26.80
2018-12-29T08:19:41.623Z,25.40
2018-12-29T08:22:10.425Z,26.27
2018-12-29T08:24:39.313Z,27.93
2018-12-29T08:27:08.230Z,28.00
2018-12-29T08:29:37.045Z,29.13
2018-12-29T08:32:05.956Z,25.50
2018-12-29T08:34:34.881Z,25.53
2018-12-29T08:37:03.771Z,27.03
2018-12-29T08:39:32.784Z,26.37
2018-12-29T08:42:01.822Z,26.20
2018-12-29T08:44:30.712Z,24.93
2018-12-29T08:47:04.521Z,25.10
2018-12-29T08:49:31.531Z,27.03
2018-12-29T08:52:00.490Z,27.37
2018-12-29T08:54:29.330Z,26.43
2018-12-29T08:56:58.221Z,24.17
2018-12-29T08:59:27.211Z,27.97
2018-12-29T09:01:56.102Z,24.87
2018-12-29T09:04:25.015Z,26.53
2018-12-29T09:06:53.874Z,24.73
2018-12-29T09:09:22.865Z,25.80
2018-12-29T09:11:51.725Z,24.73
2018-12-29T09:14:20.639Z,24.83
2018-12-29T09:16:49.622Z,26.93
2018-12-29T09:19:18.432Z,27.37
2018-12-29T09:21:47.246Z,25.77
2018-12-29T09:24:16.126Z,27.17
2018-12-29T09:26:45.153Z,28.80
2018-12-29T09:30:20.573Z,28.07
2018-12-29T09:32:49.509Z,26.00
2018-12-29T09:35:48.878Z,27.77
2018-12-29T09:39:09.098Z,27.33
2018-12-29T09:41:38.033Z,26.33
2018-12-29T09:44:06.952Z,27.47
2018-12-29T09:46:35.888Z,29.13
2018-12-29T09:49:04.784Z,28.67
2018-12-29T09:51:33.610Z,26.77
2018-12-29T09:54:03.559Z,27.87
2018-12-29T09:56:32.552Z,27.73
2018-12-29T09:59:01.373Z,28.07
2018-12-29T10:01:30.189Z,28.60
2018-12-29T10:03:59.069Z,28.43
2018-12-29T10:06:27.862Z,28.33
2018-12-29T10:08:56.857Z,28.00
2018-12-29T10:11:25.817Z,26.77
2018-12-29T10:13:54.784Z,26.70
2018-12-29T10:16:23.726Z,26.70
2018-12-29T10:18:52.694Z,26.80
2018-12-29T10:21:21.632Z,30.60
2018-12-29T10:23:50.477Z,26.03
2018-12-29T10:26:22.281Z,25.00
2018-12-29T10:28:51.200Z,25.53
2018-12-29T10:31:20.120Z,24.47
2018-12-29T10:34:07.166Z,24.07
2018-12-29T10:36:36.094Z,23.37
2018-12-29T10:39:07.388Z,22.23
2018-12-29T10:41:36.310Z,22.50
2018-12-29T10:44:05.380Z,22.53
2018-12-29T10:46:34.434Z,21.57
2018-12-29T10:49:03.429Z,21.50
2018-12-29T10:51:32.320Z,21.83
2018-12-29T10:54:01.427Z,21.50
2018-12-29T10:56:30.367Z,22.10
2018-12-29T10:58:59.250Z,21.50
2018-12-29T11:04:56.457Z,22.50
2018-12-29T11:07:25.472Z,22.93
2018-12-29T11:09:54.361Z,21.93
2018-12-29T11:12:23.177Z,21.13
2018-12-29T11:14:51.988Z,21.43
2018-12-29T11:17:20.891Z,22.37
2018-12-29T11:19:49.828Z,21.90
2018-12-29T11:22:18.758Z,22.47
2018-12-29T11:24:47.734Z,20.53
2018-12-29T11:27:16.747Z,22.93
2018-12-29T11:29:45.708Z,22.70
2018-12-29T11:32:14.610Z,22.90
2018-12-29T11:34:43.599Z,21.63
2018-12-29T11:37:12.519Z,21.30
2018-12-29T11:39:41.427Z,23.67
2018-12-29T11:42:10.356Z,24.77
2018-12-29T11:44:39.283Z,24.87
2018-12-29T11:47:08.208Z,26.90
2018-12-29T11:49:37.337Z,27.13
2018-12-29T11:52:06.339Z,25.63
2018-12-29T11:54:35.324Z,26.33
2018-12-29T11:57:04.186Z,25.17
2018-12-29T11:59:33.021Z,23.90
2018-12-29T12:02:03.735Z,27.23
2018-12-29T12:04:32.728Z,26.17
2018-12-29T12:07:01.983Z,28.47
2018-12-29T12:09:30.919Z,29.13
2018-12-29T12:11:59.819Z,31.57
2018-12-29T12:17:57.814Z,34.20
2018-12-29T12:20:27.072Z,33.67
2018-12-29T12:22:55.965Z,35.47
2018-12-29T12:25:24.915Z,36.10
2018-12-29T12:27:54.092Z,35.70
2018-12-29T12:30:23.000Z,35.23
2018-12-29T12:32:51.950Z,34.60
2018-12-29T12:35:20.896Z,34.90
2018-12-29T12:37:49.861Z,31.33
2018-12-29T12:40:18.718Z,33.23
2018-12-29T12:42:47.570Z,33.43
2018-12-29T12:45:16.430Z,32.40
2018-12-29T12:47:45.379Z,31.97
2018-12-29T12:50:14.310Z,32.47
2018-12-29T12:52:43.323Z,31.83
2018-12-29T12:55:12.311Z,32.17
2018-12-29T12:57:41.167Z,31.77
2018-12-29T13:00:10.515Z,33.10
2018-12-29T13:02:41.588Z,33.33
2018-12-29T13:05:10.559Z,32.87
2018-12-29T13:07:39.483Z,32.00
2018-12-29T13:10:08.645Z,32.23
2018-12-29T13:12:37.575Z,31.50
2018-12-29T13:15:06.563Z,31.47
2018-12-29T13:17:35.500Z,30.40
2018-12-29T13:20:05.139Z,30.27
2018-12-29T13:22:34.100Z,32.83
2018-12-29T13:25:03.008Z,30.17
2018-12-29T13:27:31.984Z,31.23
2018-12-29T13:30:00.882Z,29.60
2018-12-29T13:32:29.876Z,30.23
2018-12-29T13:34:58.900Z,31.67
2018-12-29T13:37:27.806Z,30.67
2018-12-29T13:39:56.808Z,31.07
2018-12-29T13:42:25.768Z,29.83
2018-12-29T13:44:54.675Z,30.10
2018-12-29T13:47:23.677Z,30.33
2018-12-29T13:49:52.497Z,30.13
2018-12-29T13:52:21.455Z,29.07
2018-12-29T13:54:50.334Z,32.13
2018-12-29T13:57:20.286Z,29.77
2018-12-29T13:59:49.590Z,29.17
2018-12-29T14:02:18.567Z,30.50
2018-12-29T14:08:16.419Z,31.73
2018-12-29T14:11:04.397Z,32.33
2018-12-29T14:13:33.278Z,30.10
2018-12-29T14:16:21.733Z,31.17
2018-12-29T14:21:57.481Z,29.30
2018-12-29T14:24:45.627Z,30.93
2018-12-29T14:27:14.559Z,31.77
2018-12-29T14:29:43.534Z,31.07
2018-12-29T14:32:12.811Z,31.83
2018-12-29T14:34:43.447Z,29.90
2018-12-29T14:37:53.947Z,30.07
2018-12-29T14:40:22.877Z,30.20
2018-12-29T14:42:51.724Z,30.77
2018-12-29T14:46:02.432Z,29.67
2018-12-29T14:48:35.846Z,30.73
2018-12-29T14:51:07.918Z,29.77
2018-12-29T14:53:36.896Z,30.27
2018-12-29T14:56:05.789Z,31.43
2018-12-29T14:58:34.780Z,29.40
2018-12-29T15:01:03.692Z,28.90
2018-12-29T15:03:32.507Z,29.83
2018-12-29T15:06:01.470Z,29.70
2018-12-29T15:08:30.426Z,31.47
2018-12-29T15:10:59.344Z,31.03
2018-12-29T15:13:28.548Z,30.30
2018-12-29T15:15:57.461Z,30.40
2018-12-29T15:18:26.453Z,31.57
2018-12-29T15:20:55.494Z,30.60
2018-12-29T15:23:24.426Z,29.57
2018-12-29T15:25:53.623Z,29.07
2018-12-29T15:28:22.675Z,29.07
2018-12-29T15:30:51.598Z,28.57
2018-12-29T15:33:20.516Z,26.50
2018-12-29T15:35:49.416Z,27.60
2018-12-29T15:38:18.240Z,27.57
2018-12-29T15:40:47.531Z,27.77
2018-12-29T15:43:19.726Z,27.63
2018-12-29T15:45:48.559Z,26.10
2018-12-29T15:48:17.556Z,24.33
2018-12-29T15:50:46.473Z,26.60
2018-12-29T15:53:15.378Z,27.03
2018-12-29T15:55:44.250Z,25.10
2018-12-29T15:58:13.520Z,22.33
2018-12-29T16:00:42.420Z,24.17
2018-12-29T16:03:12.111Z,25.80
2018-12-29T16:05:40.959Z,24.40
2018-12-29T16:08:09.988Z,22.77
2018-12-29T16:10:39.001Z,23.90
2018-12-29T16:13:07.978Z,24.33
2018-12-29T16:15:37.028Z,25.70
2018-12-29T16:18:05.919Z,24.93
2018-12-29T16:20:34.844Z,24.03
2018-12-29T16:23:03.850Z,23.03
2018-12-29T16:29:01.623Z,20.80
2018-12-29T16:31:30.571Z,22.00
2018-12-29T16:33:59.528Z,22.30
2018-12-29T16:36:28.854Z,21.20
2018-12-29T16:38:57.900Z,21.17
2018-12-29T16:41:26.689Z,22.37
2018-12-29T16:43:55.895Z,23.70
2018-12-29T16:46:24.897Z,21.50
2018-12-29T16:48:53.823Z,21.37
2018-12-29T16:51:22.812Z,20.57
2018-12-29T16:53:51.940Z,20.87
2018-12-29T16:56:22.462Z,22.53
2018-12-29T16:58:51.433Z,21.47
2018-12-29T17:01:20.402Z,22.77
2018-12-29T17:03:49.601Z,22.93
2018-12-29T17:06:18.493Z,22.83
2018-12-29T17:08:47.316Z,22.23
2018-12-29T17:11:16.303Z,22.13
2018-12-29T17:13:45.642Z,22.50
2018-12-29T17:16:14.598Z,23.73
2018-12-29T17:18:43.425Z,28.83
2018-12-29T17:21:12.972Z,24.13
2018-12-29T17:23:41.745Z,21.50
2018-12-29T17:26:10.662Z,22.50
2018-12-29T17:28:39.458Z,23.40
2018-12-29T17:31:08.465Z,24.40
2018-12-29T17:33:37.403Z,24.33
2018-12-29T17:36:06.293Z,23.37
2018-12-29T17:38:35.150Z,23.80
2018-12-29T17:41:04.331Z,24.60
2018-12-29T17:43:33.366Z,24.20
2018-12-29T17:46:02.306Z,22.63
2018-12-29T17:48:31.269Z,23.10
2018-12-29T17:51:00.203Z,20.97
2018-12-29T17:53:29.526Z,22.93
2018-12-29T17:55:58.525Z,21.93
2018-12-29T17:58:27.434Z,23.00
2018-12-29T18:00:56.387Z,22.07
2018-12-29T18:03:25.487Z,22.33
2018-12-29T18:05:54.849Z,21.17
2018-12-29T18:08:23.974Z,21.40
2018-12-29T18:10:52.989Z,21.50
2018-12-29T18:13:22.038Z,20.37
2018-12-29T18:15:51.064Z,20.40
2018-12-29T18:18:22.862Z,19.07
2018-12-29T18:20:52.821Z,20.10
2018-12-29T18:23:21.828Z,19.03
2018-12-29T18:25:50.757Z,20.90
2018-12-29T18:28:19.694Z,19.30
2018-12-29T18:30:48.653Z,20.73
2018-12-29T18:33:17.681Z,19.20
2018-12-29T18:35:46.683Z,20.17
2018-12-29T18:38:48.931Z,19.13
2018-12-29T18:41:18.122Z,21.73
2018-12-29T18:43:47.084Z,20.50
2018-12-29T18:46:17.051Z,20.90
2018-12-29T18:48:46.010Z,18.77
2018-12-29T18:51:50.853Z,18.37
2018-12-29T18:54:22.569Z,19.10
2018-12-29T18:56:51.813Z,19.63
2018-12-29T18:59:20.977Z,20.83
2018-12-29T19:01:57.408Z,20.43
2018-12-29T19:04:20.976Z,21.13
2018-12-29T19:06:49.901Z,21.50
2018-12-29T19:09:28.283Z,19.50
2018-12-29T19:11:57.233Z,19.07
2018-12-29T19:14:26.109Z,18.13
2018-12-29T19:16:55.487Z,18.63
2018-12-29T19:19:24.991Z,19.90
2018-12-29T19:21:53.929Z,16.30
2018-12-29T19:24:22.830Z,17.40
2018-12-29T19:26:53.930Z,17.57
2018-12-29T19:29:22.530Z,17.00
2018-12-29T19:31:52.558Z,16.30
2018-12-29T19:34:22.700Z,17.10
2018-12-29T19:36:51.698Z,16.07
2018-12-29T19:39:21.062Z,16.70
2018-12-29T19:41:54.943Z,15.20
2018-12-29T19:44:20.776Z,12.77
2018-12-29T19:46:49.963Z,11.30
2018-12-29T19:49:18.967Z,11.70
2018-12-29T19:51:47.883Z,10.40
2018-12-29T19:54:17.280Z,6.90
2018-12-29T19:56:46.284Z,7.10
2018-12-29T19:59:15.531Z,5.80
2018-12-29T20:01:47.543Z,4.73
2018-12-29T20:04:16.926Z,4.13
2018-12-29T20:06:45.781Z,3.47
2018-12-29T20:09:47.733Z,3.23
2018-12-29T20:12:16.726Z,4.07
2018-12-29T20:14:45.607Z,4.87
2018-12-29T20:17:14.522Z,3.80
2018-12-29T20:20:38.098Z,3.03
2018-12-29T20:23:07.141Z,3.13
2018-12-29T20:25:57.331Z,3.57
2018-12-29T20:28:26.399Z,2.87
2018-12-29T20:30:55.298Z,2.70
2018-12-29T20:33:24.601Z,3.67
2018-12-29T20:35:53.518Z,3.33
2018-12-29T20:38:41.651Z,1.70
2018-12-29T20:41:29.804Z,1.80
2018-12-29T20:47:05.872Z,2.97
2018-12-29T20:49:53.998Z,2.20
2018-12-29T20:52:42.149Z,2.50
2018-12-29T20:55:30.297Z,2.77
2018-12-29T20:58:18.442Z,2.40
2018-12-29T21:01:27.084Z,2.40
2018-12-29T21:03:55.946Z,1.80
2018-12-29T21:06:24.899Z,1.90
2018-12-29T21:08:53.720Z,2.67
2018-12-29T21:11:22.654Z,2.17
2018-12-29T21:13:51.751Z,2.03
2018-12-29T21:16:20.639Z,2.20
2018-12-29T21:18:50.114Z,2.10
2018-12-29T21:21:19.102Z,2.43
2018-12-29T21:23:48.028Z,2.07
2018-12-29T21:26:17.168Z,1.70
2018-12-29T21:28:46.182Z,1.80
2018-12-29T21:31:15.218Z,3.30
2018-12-29T21:33:44.183Z,2.70
2018-12-29T21:36:13.184Z,3.03
2018-12-29T21:38:42.187Z,2.50
2018-12-29T21:41:11.229Z,2.27
2018-12-29T21:43:40.382Z,1.97
2018-12-29T21:46:09.428Z,2.03
2018-12-29T21:48:38.429Z,1.70
2018-12-29T21:51:07.424Z,1.93
2018-12-29T21:53:36.484Z,1.33
2018-12-29T21:56:05.396Z,1.83
2018-12-29T21:58:34.720Z,1.60
2018-12-29T22:01:03.714Z,1.93
2018-12-29T22:03:32.661Z,1.33
2018-12-29T22:06:01.527Z,1.57
2018-12-29T22:08:30.453Z,1.37
2018-12-29T22:10:59.442Z,1.20
2018-12-29T22:13:28.405Z,1.50
2018-12-29T22:15:57.312Z,1.53
2018-12-29T22:18:26.160Z,2.30
2018-12-29T22:20:55.188Z,1.30
2018-12-29T22:23:24.251Z,1.40
2018-12-29T22:25:53.620Z,1.17
2018-12-29T22:28:22.492Z,1.33
2018-12-29T22:30:51.473Z,1.70
2018-12-29T22:33:20.462Z,1.67
2018-12-29T22:35:49.425Z,2.33
2018-12-29T22:38:18.912Z,1.77
2018-12-29T22:40:47.798Z,1.90
2018-12-29T22:43:16.811Z,1.80
2018-12-29T22:45:45.790Z,1.67
2018-12-29T22:48:14.775Z,2.03
2018-12-29T22:50:43.700Z,2.00
2018-12-29T22:53:12.700Z,2.00
2018-12-29T22:55:41.667Z,1.80
2018-12-29T22:58:10.626Z,1.80
2018-12-29T23:00:41.417Z,2.30
2018-12-29T23:03:10.440Z,2.60
2018-12-29T23:05:39.409Z,2.03
2018-12-29T23:08:08.430Z,2.73
2018-12-29T23:10:37.394Z,2.80
2018-12-29T23:13:06.429Z,2.33
2018-12-29T23:15:35.336Z,2.40
2018-12-29T23:18:06.805Z,2.97
2018-12-29T23:20:36.169Z,3.97
2018-12-29T23:23:05.117Z,4.03
2018-12-29T23:25:34.140Z,4.43
2018-12-29T23:28:03.157Z,7.20
2018-12-29T23:30:32.021Z,5.03
2018-12-29T23:33:00.917Z,4.20
2018-12-29T23:35:30.729Z,6.20
2018-12-29T23:38:00.251Z,4.77
2018-12-29T23:40:29.136Z,3.63
2018-12-29T23:42:58.023Z,3.70
2018-12-29T23:45:26.938Z,3.23
2018-12-29T23:47:55.876Z,2.90
2018-12-29T23:50:27.124Z,3.20
2018-12-29T23:52:57.824Z,3.50
2018-12-29T23:55:27.196Z,3.67
2018-12-29T23:57:56.157Z,3.37
